createdAt,value
2022-10-05T00:01:23.688Z,13.83
2022-10-05T00:03:53.067Z,13.68
2022-10-05T00:06:21.349Z,13.72
2022-10-05T00:08:49.530Z,13.81
2022-10-05T00:11:18.788Z,13.43
2022-10-05T00:13:47.276Z,13.78
2022-10-05T00:16:20.980Z,14.00
2022-10-05T00:18:51.809Z,13.97
2022-10-05T00:21:22.372Z,13.84
2022-10-05T00:23:51.399Z,14.04
2022-10-05T00:26:22.969Z,13.71
2022-10-05T00:28:51.431Z,13.87
2022-10-05T00:31:23.448Z,14.15
2022-10-05T00:33:52.484Z,14.12
2022-10-05T00:36:20.880Z,14.32
2022-10-05T00:38:49.165Z,13.67
2022-10-05T00:41:22.839Z,13.76
2022-10-05T00:44:12.110Z,14.42
2022-10-05T00:46:53.586Z,13.78
2022-10-05T00:49:39.092Z,13.42
2022-10-05T00:52:22.271Z,13.30
2022-10-05T00:55:00.597Z,13.01
2022-10-05T00:57:42.145Z,12.93
2022-10-05T01:00:14.001Z,13.59
2022-10-05T01:02:55.346Z,13.71
2022-10-05T01:05:41.087Z,13.27
2022-10-05T01:08:23.607Z,13.39
2022-10-05T01:11:03.525Z,11.55
2022-10-05T01:13:39.132Z,12.73
2022-10-05T01:16:16.483Z,12.42
2022-10-05T01:18:54.452Z,11.94
2022-10-05T01:21:24.553Z,11.87
2022-10-05T01:24:43.475Z,11.70
2022-10-05T01:27:33.419Z,12.09
2022-10-05T01:30:07.795Z,12.41
2022-10-05T01:32:43.941Z,12.45
2022-10-05T01:35:22.716Z,12.62
2022-10-05T01:37:59.961Z,13.00
2022-10-05T01:40:36.148Z,13.31
2022-10-05T01:43:11.220Z,13.36
2022-10-05T01:45:54.952Z,12.77
2022-10-05T01:48:33.297Z,13.22
2022-10-05T01:51:13.232Z,13.20
2022-10-05T01:53:51.598Z,12.94
2022-10-05T01:56:29.204Z,11.96
2022-10-05T01:59:11.405Z,12.58
2022-10-05T02:01:50.097Z,12.75
2022-10-05T02:04:59.882Z,12.74
2022-10-05T02:07:18.327Z,12.26
2022-10-05T02:09:53.021Z,13.03
2022-10-05T02:12:25.490Z,12.99
2022-10-05T02:14:59.727Z,12.89
2022-10-05T02:17:37.826Z,12.96
2022-10-05T02:20:10.360Z,13.02
2022-10-05T02:22:43.656Z,12.89
2022-10-05T02:25:15.994Z,12.84
2022-10-05T02:27:49.205Z,12.79
2022-10-05T02:30:19.561Z,12.79
2022-10-05T02:32:55.437Z,12.93
2022-10-05T02:35:24.201Z,12.82
2022-10-05T02:38:02.699Z,12.48
2022-10-05T02:40:42.756Z,12.38
2022-10-05T02:43:22.389Z,11.48
2022-10-05T02:45:58.555Z,12.01
2022-10-05T02:48:38.012Z,12.39
2022-10-05T02:51:16.468Z,12.28
2022-10-05T02:53:55.165Z,12.02
2022-10-05T02:56:31.445Z,11.69
2022-10-05T02:59:08.805Z,12.32
2022-10-05T03:01:42.263Z,12.42
2022-10-05T03:04:22.783Z,12.10
2022-10-05T03:07:02.781Z,12.23
2022-10-05T03:09:37.482Z,11.81
2022-10-05T03:12:19.316Z,12.30
2022-10-05T03:14:58.720Z,12.14
2022-10-05T03:17:32.121Z,12.34
2022-10-05T03:20:17.709Z,12.40
2022-10-05T03:22:51.740Z,12.30
2022-10-05T03:25:37.482Z,12.27
2022-10-05T03:28:15.175Z,11.95
2022-10-05T03:30:50.269Z,12.37
2022-10-05T03:33:28.692Z,11.87
2022-10-05T03:36:07.691Z,11.35
2022-10-05T03:38:42.863Z,10.85
2022-10-05T03:41:19.092Z,10.93
2022-10-05T03:44:24.989Z,10.83
2022-10-05T03:47:07.057Z,11.05
2022-10-05T03:49:49.365Z,10.46
2022-10-05T03:52:24.662Z,10.11
2022-10-05T03:54:59.245Z,10.42
2022-10-05T03:57:30.944Z,10.84
2022-10-05T04:00:04.993Z,11.10
2022-10-05T04:02:37.308Z,11.26
2022-10-05T04:05:15.676Z,11.30
2022-10-05T04:07:51.795Z,11.24
2022-10-05T04:10:25.430Z,11.22
2022-10-05T04:12:59.677Z,11.46
2022-10-05T04:15:35.058Z,11.25
2022-10-05T04:18:06.836Z,11.35
2022-10-05T04:20:42.196Z,10.99
2022-10-05T04:23:20.724Z,11.18
2022-10-05T04:25:53.904Z,11.27
2022-10-05T04:28:32.011Z,11.29
2022-10-05T04:31:04.665Z,11.30
2022-10-05T04:33:33.347Z,11.20
2022-10-05T04:36:23.382Z,11.42
2022-10-05T04:39:06.432Z,11.46
2022-10-05T04:42:05.677Z,11.57
2022-10-05T04:44:49.994Z,11.84
2022-10-05T04:47:55.630Z,11.83
2022-10-05T04:50:36.689Z,11.89
2022-10-05T04:53:17.839Z,11.20
2022-10-05T04:55:55.386Z,10.92
2022-10-05T04:58:40.139Z,10.83
2022-10-05T05:01:27.972Z,10.52
2022-10-05T05:04:26.547Z,10.45
2022-10-05T05:07:09.076Z,11.18
2022-10-05T05:10:00.101Z,11.35
2022-10-05T05:12:40.108Z,11.80
2022-10-05T05:15:22.157Z,12.24
2022-10-05T05:18:04.145Z,12.13
2022-10-05T05:20:48.559Z,12.37
2022-10-05T05:23:28.421Z,12.58
2022-10-05T05:26:06.173Z,12.95
2022-10-05T05:28:44.632Z,12.69
2022-10-05T05:31:25.341Z,11.56
2022-10-05T05:34:03.088Z,11.62
2022-10-05T05:36:43.167Z,11.54
2022-10-05T05:39:27.442Z,11.75
2022-10-05T05:42:06.527Z,12.19
2022-10-05T05:44:41.709Z,11.97
2022-10-05T05:47:19.923Z,12.37
2022-10-05T05:50:07.110Z,12.89
2022-10-05T05:52:40.928Z,13.27
2022-10-05T05:55:18.651Z,12.87
2022-10-05T05:57:54.456Z,12.00
2022-10-05T06:00:29.130Z,12.09
2022-10-05T06:03:05.164Z,12.51
2022-10-05T06:05:39.800Z,12.61
2022-10-05T06:08:15.761Z,13.11
2022-10-05T06:10:49.307Z,13.15
2022-10-05T06:13:22.966Z,13.26
2022-10-05T06:15:57.065Z,14.10
2022-10-05T06:18:26.656Z,14.49
2022-10-05T06:21:00.562Z,15.79
2022-10-05T06:23:35.781Z,16.11
2022-10-05T06:26:35.110Z,15.50
2022-10-05T06:29:09.956Z,15.42
2022-10-05T06:31:58.566Z,15.72
2022-10-05T06:34:48.390Z,16.07
2022-10-05T06:37:25.203Z,16.35
2022-10-05T06:40:04.969Z,16.52
2022-10-05T06:43:02.203Z,18.05
2022-10-05T06:45:42.056Z,17.59
2022-10-05T06:48:19.712Z,17.61
2022-10-05T06:50:53.693Z,17.99
2022-10-05T06:53:31.892Z,18.58
2022-10-05T06:56:08.176Z,19.02
2022-10-05T06:58:56.100Z,19.47
2022-10-05T07:01:37.541Z,19.53
2022-10-05T07:04:36.623Z,20.18
2022-10-05T07:07:15.940Z,20.61
2022-10-05T07:09:57.710Z,20.86
2022-10-05T07:12:58.097Z,21.01
2022-10-05T07:15:37.048Z,20.76
2022-10-05T07:18:29.369Z,20.97
2022-10-05T07:21:06.141Z,20.41
2022-10-05T07:23:50.823Z,20.68
2022-10-05T07:26:23.852Z,21.82
2022-10-05T07:29:13.974Z,21.02
2022-10-05T07:31:51.015Z,21.76
2022-10-05T07:34:30.848Z,21.72
2022-10-05T07:37:23.869Z,22.14
2022-10-05T07:40:06.145Z,22.09
2022-10-05T07:42:51.809Z,22.41
2022-10-05T07:45:29.395Z,22.98
2022-10-05T07:47:59.403Z,23.10
2022-10-05T07:50:36.066Z,23.13
2022-10-05T07:53:12.978Z,22.87
2022-10-05T07:55:48.195Z,23.13
2022-10-05T07:58:22.205Z,23.55
2022-10-05T08:01:04.179Z,23.94
2022-10-05T08:03:43.444Z,24.54
2022-10-05T08:06:17.118Z,24.67
2022-10-05T08:08:55.013Z,24.28
2022-10-05T08:11:28.993Z,23.17
2022-10-05T08:14:05.392Z,23.66
2022-10-05T08:16:39.099Z,24.95
2022-10-05T08:19:16.627Z,25.50
2022-10-05T08:21:49.529Z,25.40
2022-10-05T08:24:34.026Z,25.13
2022-10-05T08:27:09.249Z,25.09
2022-10-05T08:29:43.943Z,24.99
2022-10-05T08:32:19.712Z,25.62
2022-10-05T08:34:52.934Z,25.60
2022-10-05T08:37:25.616Z,24.69
2022-10-05T08:40:14.401Z,24.93
2022-10-05T08:42:56.628Z,25.21
2022-10-05T08:45:56.352Z,26.17
2022-10-05T08:48:52.202Z,27.64
2022-10-05T08:51:50.051Z,28.28
2022-10-05T08:54:43.307Z,26.33
2022-10-05T08:57:35.925Z,25.14
2022-10-05T09:00:11.807Z,25.07
2022-10-05T09:03:16.096Z,25.28
2022-10-05T09:06:23.297Z,27.35
2022-10-05T09:09:17.549Z,28.30
2022-10-05T09:11:49.925Z,28.81
2022-10-05T09:14:52.437Z,27.31
2022-10-05T09:17:43.490Z,27.77
2022-10-05T09:20:20.137Z,28.77
2022-10-05T09:22:59.991Z,28.97
2022-10-05T09:25:44.484Z,28.88
2022-10-05T09:28:25.248Z,27.92
2022-10-05T09:31:12.899Z,28.43
2022-10-05T09:34:31.872Z,28.55
2022-10-05T09:37:22.310Z,26.68
2022-10-05T09:40:35.297Z,26.01
2022-10-05T09:43:21.334Z,27.48
2022-10-05T09:46:07.465Z,27.92
2022-10-05T09:49:04.364Z,28.99
2022-10-05T09:52:07.073Z,29.60
2022-10-05T09:55:14.589Z,28.75
2022-10-05T09:58:30.496Z,28.81
2022-10-05T10:01:29.247Z,28.52
2022-10-05T10:04:25.927Z,29.08
2022-10-05T10:07:23.181Z,27.57
2022-10-05T10:10:23.045Z,29.08
2022-10-05T10:13:07.669Z,30.53
2022-10-05T10:16:24.454Z,30.25
2022-10-05T10:19:24.288Z,29.05
2022-10-05T10:22:42.905Z,29.62
2022-10-05T10:25:42.161Z,31.35
2022-10-05T10:28:49.547Z,30.69
2022-10-05T10:31:40.085Z,30.77
2022-10-05T10:34:44.176Z,31.24
2022-10-05T10:37:39.524Z,29.58
2022-10-05T10:40:38.165Z,29.71
2022-10-05T10:43:30.306Z,30.53
2022-10-05T10:46:08.301Z,29.72
2022-10-05T10:49:00.813Z,31.67
2022-10-05T10:51:58.642Z,31.02
2022-10-05T10:55:05.677Z,31.23
2022-10-05T10:57:48.771Z,29.64
2022-10-05T11:00:28.627Z,30.41
2022-10-05T11:03:29.206Z,32.46
2022-10-05T11:06:36.186Z,32.50
2022-10-05T11:09:51.991Z,33.24
2022-10-05T11:13:02.864Z,31.83
2022-10-05T11:18:53.644Z,31.11
2022-10-05T11:21:30.717Z,31.33
2022-10-05T11:24:29.205Z,31.57
2022-10-05T11:27:17.665Z,30.32
2022-10-05T11:30:18.493Z,31.15
2022-10-05T11:33:25.748Z,29.34
2022-10-05T11:36:25.656Z,30.54
2022-10-05T11:39:26.455Z,30.04
2022-10-05T11:42:27.837Z,29.93
2022-10-05T11:45:26.187Z,32.10
2022-10-05T11:48:30.362Z,31.86
2022-10-05T11:51:30.198Z,32.59
2022-10-05T11:54:17.549Z,31.11
2022-10-05T11:56:53.853Z,31.58
2022-10-05T11:59:31.659Z,31.14
2022-10-05T12:02:14.040Z,30.71
2022-10-05T12:04:50.758Z,31.92
2022-10-05T12:07:31.949Z,31.01
2022-10-05T12:10:20.284Z,31.28
2022-10-05T12:13:04.936Z,31.57
2022-10-05T12:15:41.425Z,31.50
2022-10-05T12:18:15.613Z,33.05
2022-10-05T12:20:49.828Z,32.98
2022-10-05T12:23:23.893Z,30.95
2022-10-05T12:25:57.220Z,31.29
2022-10-05T12:28:37.513Z,31.39
2022-10-05T12:31:18.043Z,31.23
2022-10-05T12:33:57.829Z,31.14
2022-10-05T12:36:52.551Z,30.93
2022-10-05T12:39:33.646Z,31.41
2022-10-05T12:42:15.907Z,31.83
2022-10-05T12:44:59.450Z,31.86
2022-10-05T12:47:36.447Z,31.71
2022-10-05T12:50:20.086Z,31.26
2022-10-05T12:53:03.417Z,30.38
2022-10-05T12:55:42.252Z,30.87
2022-10-05T12:58:26.594Z,29.76
2022-10-05T13:01:01.429Z,29.03
2022-10-05T13:03:35.717Z,28.84
2022-10-05T13:06:16.636Z,27.39
2022-10-05T13:08:54.296Z,27.35
2022-10-05T13:11:30.051Z,28.28
2022-10-05T13:14:09.489Z,29.26
2022-10-05T13:16:46.128Z,29.95
2022-10-05T13:19:32.290Z,30.00
2022-10-05T13:22:17.309Z,28.92
2022-10-05T13:24:55.166Z,28.99
2022-10-05T13:27:28.929Z,29.50
2022-10-05T13:30:03.883Z,29.89
2022-10-05T13:32:37.655Z,29.22
2022-10-05T13:35:24.966Z,28.61
2022-10-05T13:38:06.142Z,30.15
2022-10-05T13:40:40.598Z,29.04
2022-10-05T13:43:19.055Z,29.36
2022-10-05T13:45:56.583Z,29.78
2022-10-05T13:48:48.423Z,30.42
2022-10-05T13:51:21.535Z,29.23
2022-10-05T13:53:57.082Z,27.43
2022-10-05T13:56:30.892Z,26.80
2022-10-05T13:59:06.838Z,27.48
2022-10-05T14:01:43.075Z,26.19
2022-10-05T14:04:19.256Z,26.27
2022-10-05T14:06:48.037Z,26.23
2022-10-05T14:09:32.127Z,25.79
2022-10-05T14:12:21.441Z,25.74
2022-10-05T14:14:52.479Z,26.20
2022-10-05T14:17:38.623Z,27.20
2022-10-05T14:20:21.371Z,26.85
2022-10-05T14:22:55.684Z,26.54
2022-10-05T14:25:28.432Z,26.83
2022-10-05T14:28:03.173Z,27.02
2022-10-05T14:30:33.354Z,26.98
2022-10-05T14:33:17.494Z,26.10
2022-10-05T14:35:50.383Z,26.19
2022-10-05T14:38:21.773Z,27.53
2022-10-05T14:41:07.812Z,25.45
2022-10-05T14:43:36.342Z,24.22
2022-10-05T14:46:28.058Z,25.10
2022-10-05T14:49:22.379Z,26.04
2022-10-05T14:51:51.504Z,26.38
2022-10-05T14:54:42.098Z,23.12
2022-10-05T14:57:25.424Z,24.12
2022-10-05T15:00:05.900Z,24.32
2022-10-05T15:03:05.612Z,24.12
2022-10-05T15:05:39.373Z,24.06
2022-10-05T15:08:26.346Z,23.70
2022-10-05T15:11:00.505Z,22.63
2022-10-05T15:13:34.093Z,22.49
2022-10-05T15:16:13.270Z,22.39
2022-10-05T15:18:49.189Z,22.12
2022-10-05T15:21:31.350Z,22.10
2022-10-05T15:24:04.034Z,21.89
2022-10-05T15:26:43.950Z,21.94
2022-10-05T15:29:22.792Z,21.85
2022-10-05T15:32:00.952Z,21.60
2022-10-05T15:34:37.475Z,21.06
2022-10-05T15:37:16.291Z,21.10
2022-10-05T15:39:52.724Z,20.79
2022-10-05T15:42:26.424Z,20.55
2022-10-05T15:45:05.559Z,20.36
2022-10-05T15:47:47.820Z,20.15
2022-10-05T15:50:23.014Z,20.26
2022-10-05T15:52:57.553Z,19.92
2022-10-05T15:55:37.526Z,20.32
2022-10-05T15:58:40.446Z,20.55
2022-10-05T16:01:14.206Z,20.68
2022-10-05T16:03:50.594Z,19.93
2022-10-05T16:06:49.418Z,20.10
2022-10-05T16:09:33.412Z,19.97
2022-10-05T16:12:21.752Z,20.15
2022-10-05T16:15:00.651Z,20.48
2022-10-05T16:17:48.134Z,20.29
2022-10-05T16:20:26.572Z,20.04
2022-10-05T16:23:02.769Z,19.93
2022-10-05T16:25:44.193Z,19.97
2022-10-05T16:28:22.713Z,19.97
2022-10-05T16:31:00.099Z,19.30
2022-10-05T16:33:46.619Z,19.74
2022-10-05T16:36:23.902Z,20.08
2022-10-05T16:39:00.888Z,20.18
2022-10-05T16:41:35.085Z,20.25
2022-10-05T16:44:13.475Z,19.64
2022-10-05T16:46:48.974Z,19.79
2022-10-05T16:49:32.737Z,18.71
2022-10-05T16:52:02.312Z,18.48
2022-10-05T16:54:35.261Z,19.20
2022-10-05T16:57:08.109Z,19.64
2022-10-05T16:59:56.815Z,19.49
2022-10-05T17:02:40.380Z,19.50
2022-10-05T17:05:26.395Z,18.94
2022-10-05T17:08:14.256Z,19.08
2022-10-05T17:10:58.549Z,19.63
2022-10-05T17:13:42.102Z,19.54
2022-10-05T17:16:16.340Z,19.69
2022-10-05T17:19:20.396Z,19.19
2022-10-05T17:22:00.820Z,18.69
2022-10-05T17:24:48.441Z,19.18
2022-10-05T17:27:22.317Z,19.13
2022-10-05T17:29:53.738Z,18.89
2022-10-05T17:32:56.751Z,19.10
2022-10-05T17:35:54.493Z,19.15
2022-10-05T17:38:46.616Z,18.32
2022-10-05T17:41:22.594Z,18.77
2022-10-05T17:44:24.998Z,18.97
2022-10-05T17:47:00.923Z,18.60
2022-10-05T17:50:10.303Z,18.03
2022-10-05T17:53:01.241Z,18.15
2022-10-05T17:55:45.842Z,18.25
2022-10-05T17:59:03.040Z,17.86
2022-10-05T18:01:34.689Z,17.42
2022-10-05T18:04:34.602Z,16.97
2022-10-05T18:07:06.662Z,17.20
2022-10-05T18:09:37.767Z,17.31
2022-10-05T18:12:40.766Z,17.41
2022-10-05T18:15:46.693Z,17.33
2022-10-05T18:18:38.902Z,17.43
2022-10-05T18:21:28.378Z,16.98
2022-10-05T18:24:24.559Z,16.85
2022-10-05T18:27:03.724Z,16.41
2022-10-05T18:30:05.651Z,15.94
2022-10-05T18:32:56.750Z,15.04
2022-10-05T18:35:30.829Z,16.20
2022-10-05T18:38:10.378Z,16.53
2022-10-05T18:40:49.620Z,16.79
2022-10-05T18:43:31.930Z,16.92
2022-10-05T18:46:14.740Z,16.29
2022-10-05T18:48:52.270Z,15.57
2022-10-05T18:51:26.248Z,15.76
2022-10-05T18:54:10.568Z,16.13
2022-10-05T18:56:45.168Z,16.52
2022-10-05T18:59:36.575Z,16.60
2022-10-05T19:02:20.313Z,16.75
2022-10-05T19:05:04.611Z,15.63
2022-10-05T19:07:44.240Z,16.57
2022-10-05T19:10:23.229Z,16.20
2022-10-05T19:13:00.109Z,16.01
2022-10-05T19:15:36.704Z,15.87
2022-10-05T19:18:33.608Z,16.10
2022-10-05T19:21:14.457Z,15.87
2022-10-05T19:24:04.541Z,15.87
2022-10-05T19:26:52.385Z,15.62
2022-10-05T19:29:33.559Z,15.31
2022-10-05T19:32:06.979Z,15.62
2022-10-05T19:34:54.797Z,15.12
2022-10-05T19:37:32.277Z,15.28
2022-10-05T19:40:11.972Z,15.04
2022-10-05T19:42:58.483Z,15.30
2022-10-05T19:45:29.425Z,15.30
2022-10-05T19:48:12.577Z,15.24
2022-10-05T19:50:55.059Z,15.07
2022-10-05T19:53:29.467Z,15.19
2022-10-05T19:55:58.000Z,15.50
2022-10-05T19:58:28.616Z,15.12
2022-10-05T20:00:59.711Z,15.09
2022-10-05T20:03:29.579Z,15.35
2022-10-05T20:06:01.429Z,14.82
2022-10-05T20:08:39.523Z,14.15
2022-10-05T20:11:11.152Z,14.96
2022-10-05T20:13:41.862Z,15.14
2022-10-05T20:16:39.948Z,14.95
2022-10-05T20:19:41.413Z,15.01
2022-10-05T20:25:07.095Z,15.42
2022-10-05T20:27:45.827Z,15.34
2022-10-05T20:30:16.737Z,14.88
2022-10-05T20:32:45.869Z,13.95
2022-10-05T20:35:15.897Z,15.21
2022-10-05T20:37:44.285Z,14.18
2022-10-05T20:40:14.937Z,15.42
2022-10-05T20:42:43.133Z,15.51
2022-10-05T20:45:12.443Z,15.46
2022-10-05T20:47:42.256Z,15.37
2022-10-05T20:50:11.938Z,15.34
2022-10-05T20:52:41.508Z,14.98
2022-10-05T20:55:12.231Z,14.44
2022-10-05T20:57:42.753Z,15.27
2022-10-05T21:00:12.703Z,14.93
2022-10-05T21:02:40.934Z,15.15
2022-10-05T21:05:10.403Z,15.04
2022-10-05T21:07:38.632Z,15.13
2022-10-05T21:10:08.489Z,15.34
2022-10-05T21:12:36.772Z,15.35
2022-10-05T21:15:07.657Z,15.47
2022-10-05T21:17:38.188Z,14.53
2022-10-05T21:20:07.509Z,15.03
2022-10-05T21:22:36.447Z,15.32
2022-10-05T21:25:04.963Z,15.37
2022-10-05T21:27:33.226Z,15.33
2022-10-05T21:30:01.415Z,15.16
2022-10-05T21:32:31.154Z,15.22
2022-10-05T21:34:59.365Z,15.20
2022-10-05T21:37:27.553Z,15.04
2022-10-05T21:39:55.781Z,15.01
2022-10-05T21:42:24.038Z,14.99
2022-10-05T21:44:52.286Z,14.74
2022-10-05T21:47:20.545Z,14.64
2022-10-05T21:49:50.189Z,14.72
2022-10-05T21:52:18.504Z,14.86
2022-10-05T21:54:47.023Z,14.90
2022-10-05T21:57:15.556Z,14.40
2022-10-05T21:59:44.773Z,14.07
2022-10-05T22:02:13.000Z,14.68
2022-10-05T22:04:41.191Z,14.66
2022-10-05T22:07:19.257Z,14.76
2022-10-05T22:09:48.726Z,14.71
2022-10-05T22:12:17.658Z,14.63
2022-10-05T22:14:45.906Z,14.02
2022-10-05T22:17:15.959Z,14.18
2022-10-05T22:19:44.287Z,13.47
2022-10-05T22:22:12.620Z,13.47
2022-10-05T22:24:42.248Z,13.73
2022-10-05T22:27:10.526Z,14.22
2022-10-05T22:29:38.945Z,14.07
2022-10-05T22:32:07.334Z,14.25
2022-10-05T22:34:35.648Z,14.42
2022-10-05T22:37:05.408Z,14.07
2022-10-05T22:39:33.904Z,14.33
2022-10-05T22:42:03.569Z,13.83
2022-10-05T22:44:31.884Z,14.19
2022-10-05T22:47:00.133Z,14.31
2022-10-05T22:49:28.420Z,13.40
2022-10-05T22:51:56.717Z,13.36
2022-10-05T22:54:29.333Z,12.94
2022-10-05T22:56:58.264Z,12.81
2022-10-05T22:59:27.960Z,13.26
2022-10-05T23:01:56.339Z,13.08
2022-10-05T23:04:24.753Z,12.70
2022-10-05T23:06:53.044Z,13.47
2022-10-05T23:09:21.276Z,13.83
2022-10-05T23:11:52.235Z,13.94
2022-10-05T23:14:20.690Z,14.05
2022-10-05T23:16:50.297Z,14.11
2022-10-05T23:19:18.866Z,14.08
2022-10-05T23:21:47.143Z,13.90
2022-10-05T23:24:15.447Z,13.52
2022-10-05T23:26:43.712Z,13.72
2022-10-05T23:29:11.900Z,13.75
2022-10-05T23:31:40.184Z,13.50
2022-10-05T23:34:09.825Z,13.33
2022-10-05T23:36:38.129Z,13.14
2022-10-05T23:39:06.769Z,13.18
2022-10-05T23:41:35.022Z,13.50
2022-10-05T23:44:03.248Z,13.41
2022-10-05T23:46:31.496Z,13.35
2022-10-05T23:48:59.732Z,13.19
2022-10-05T23:51:29.613Z,13.45
2022-10-05T23:53:57.820Z,13.56
2022-10-05T23:56:26.076Z,13.61
2022-10-05T23:58:54.335Z,13.70
